Redlands, CA (92374)

2:29 PM PDT on August 24, 2016 (GMT -0700)
Redlands Ca | | Change Station

Elev 1496 ft 34.05 °N, 117.17 °W | Updated 14 seconds ago

Clear
Clear
94.8 °F
Feels Like 90 °F
N
1.1
Wind Variable Wind from NNE
Gusts 2.5 mph

Today
High -- | Low -- °F
--% Chance of Precip.
Yesterday
High -- | Low -- °F
Precip. -- in
Pressure 29.98 in
Visibility 5.0 miles
Clouds Clear
Heat Index 90 °F
Dew Point 40 °F
Humidity 15%
Rainfall 0.00 in
Snow Depth Not available.
6:17 AM 7:24 PM
Waning Gibbous, 53% visible
METAR KSBD 242048Z 25005KT 5SM SKC 35/08 A2998
Pressure 29.98 in
Visibility 5.0 miles
Clouds Clear
Heat Index 90 °F
Dew Point 40 °F
Humidity 15%
Rainfall 0.00 in
Snow Depth Not available.
6:17 AM 7:24 PM
Waning Gibbous, 53% visible
METAR KSBD 242048Z 25005KT 5SM SKC 35/08 A2998

10-Day Weather Forecast

Almanac

Astronomy

Aug. 24, 2016 Rise Set
Actual Time
Civil Twilight
Nautical Twilight
Astronomical Twilight
Moon
Length of Visible Light
Length of Day
Tomorrow will be .
, % of the Moon is Illuminated

Today's Extremes

State Highs State Lows

Community

WunderPhotos

Upload Photos

1,934,719 photos uploaded!

WunderBlog® & News

Nearby

Air Quality

  Air Quality AQ Index Pollutant
Not available.

Snow Depth

Station Depth Elevation

Earthquake Activity

City Distance Mag. Time & Date
Minimum magnitude displayed is 2.5.

Coastal Water Temperatures

Place Temperature

Stations

Nearby Weather Stations

Station Location Temp. Windchill Dew Point Humidity Wind Precip. Elev Updated Type
                   

Watches & Warnings

There are currently no watches in effect.